createdAt,value
2023-05-02T00:00:18.813Z,10.05
2023-05-02T00:02:24.513Z,9.99
2023-05-02T00:04:29.804Z,10.00
2023-05-02T00:06:35.595Z,9.97
2023-05-02T00:08:40.802Z,9.96
2023-05-02T00:10:46.484Z,10.04
2023-05-02T00:12:51.537Z,10.00
2023-05-02T00:14:56.914Z,10.00
2023-05-02T00:17:05.617Z,10.09
2023-05-02T00:19:10.908Z,10.10
2023-05-02T00:21:16.741Z,10.00
2023-05-02T00:23:21.852Z,9.88
2023-05-02T00:25:26.858Z,9.86
2023-05-02T00:27:33.946Z,9.91
2023-05-02T00:29:39.477Z,9.89
2023-05-02T00:31:44.745Z,9.91
2023-05-02T00:33:52.384Z,9.92
2023-05-02T00:35:57.839Z,9.94
2023-05-02T00:38:03.502Z,9.93
2023-05-02T00:40:10.886Z,9.93
2023-05-02T00:42:16.261Z,9.92
2023-05-02T00:44:22.208Z,9.91
2023-05-02T00:46:27.432Z,9.90
2023-05-02T00:48:33.006Z,9.87
2023-05-02T00:50:46.117Z,9.91
2023-05-02T00:52:51.468Z,9.87
2023-05-02T00:54:57.400Z,9.80
2023-05-02T00:57:03.815Z,9.75
2023-05-02T00:59:10.146Z,9.68
2023-05-02T01:01:36.043Z,9.61
2023-05-02T01:03:54.264Z,9.59
2023-05-02T01:06:16.046Z,9.60
2023-05-02T01:08:34.367Z,9.59
2023-05-02T01:10:53.192Z,9.55
2023-05-02T01:13:06.669Z,9.45
2023-05-02T01:15:19.695Z,9.33
2023-05-02T01:17:29.367Z,9.27
2023-05-02T01:19:39.167Z,9.19
2023-05-02T01:21:47.562Z,9.14
2023-05-02T01:24:05.887Z,9.06
2023-05-02T01:26:23.552Z,9.00
2023-05-02T01:28:39.546Z,8.88
2023-05-02T01:30:50.933Z,8.83
2023-05-02T01:32:59.958Z,8.84
2023-05-02T01:35:08.059Z,8.85
2023-05-02T01:37:15.699Z,8.72
2023-05-02T01:39:26.021Z,8.64
2023-05-02T01:41:35.542Z,8.55
2023-05-02T01:43:42.670Z,8.46
2023-05-02T01:45:54.395Z,8.47
2023-05-02T01:48:01.124Z,8.52
2023-05-02T01:50:10.963Z,8.51
2023-05-02T01:52:18.615Z,8.53
2023-05-02T01:54:26.987Z,8.45
2023-05-02T01:56:35.778Z,8.53
2023-05-02T01:58:41.827Z,8.53
2023-05-02T02:00:48.712Z,8.54
2023-05-02T02:03:00.595Z,8.57
2023-05-02T02:05:10.975Z,8.55
2023-05-02T02:07:17.321Z,8.55
2023-05-02T02:09:22.637Z,8.51
2023-05-02T02:11:39.495Z,8.61
2023-05-02T02:13:51.661Z,8.63
2023-05-02T02:16:04.435Z,8.62
2023-05-02T02:18:17.818Z,8.71
2023-05-02T02:20:24.788Z,8.71
2023-05-02T02:22:32.403Z,8.54
2023-05-02T02:24:41.909Z,8.57
2023-05-02T02:26:47.837Z,8.60
2023-05-02T02:28:53.415Z,8.66
2023-05-02T02:30:59.425Z,8.65
2023-05-02T02:33:04.901Z,8.66
2023-05-02T02:35:14.242Z,8.63
2023-05-02T02:37:22.950Z,8.59
2023-05-02T02:39:47.361Z,8.61
2023-05-02T02:42:04.818Z,8.62
2023-05-02T02:44:25.992Z,8.60
2023-05-02T02:46:45.349Z,8.66
2023-05-02T02:48:59.588Z,8.68
2023-05-02T02:51:16.233Z,8.68
2023-05-02T02:53:28.862Z,8.61
2023-05-02T02:55:47.746Z,8.51
2023-05-02T02:58:02.681Z,8.46
2023-05-02T03:00:16.452Z,8.47
2023-05-02T03:02:25.906Z,8.45
2023-05-02T03:04:33.437Z,8.40
2023-05-02T03:06:42.435Z,8.41
2023-05-02T03:08:48.442Z,8.42
2023-05-02T03:10:57.352Z,8.37
2023-05-02T03:13:02.426Z,8.32
2023-05-02T03:15:24.771Z,8.22
2023-05-02T03:17:30.445Z,8.11
2023-05-02T03:19:35.779Z,8.00
2023-05-02T03:21:43.682Z,7.93
2023-05-02T03:23:55.044Z,7.82
2023-05-02T03:26:00.325Z,7.72
2023-05-02T03:28:05.840Z,7.65
2023-05-02T03:30:12.773Z,7.59
2023-05-02T03:32:17.789Z,7.58
2023-05-02T03:34:23.727Z,7.61
2023-05-02T03:36:30.364Z,7.54
2023-05-02T03:38:38.037Z,7.44
2023-05-02T03:40:47.061Z,7.35
2023-05-02T03:42:52.120Z,7.34
2023-05-02T03:45:06.682Z,7.29
2023-05-02T03:47:13.815Z,7.22
2023-05-02T03:49:20.630Z,7.12
2023-05-02T03:51:28.054Z,7.04
2023-05-02T03:53:38.499Z,7.12
2023-05-02T03:55:44.750Z,7.24
2023-05-02T03:57:56.742Z,7.37
2023-05-02T04:00:02.233Z,7.41
2023-05-02T04:02:17.120Z,7.44
2023-05-02T04:04:26.184Z,7.53
2023-05-02T04:06:33.273Z,7.55
2023-05-02T04:08:44.967Z,7.59
2023-05-02T04:10:50.522Z,7.68
2023-05-02T04:12:55.615Z,7.77
2023-05-02T04:15:01.970Z,7.77
2023-05-02T04:17:08.760Z,7.87
2023-05-02T04:19:22.084Z,8.00
2023-05-02T04:21:27.761Z,8.09
2023-05-02T04:23:33.648Z,8.07
2023-05-02T04:25:43.051Z,8.07
2023-05-02T04:27:48.919Z,8.12
2023-05-02T04:29:58.567Z,8.10
2023-05-02T04:32:03.933Z,8.12
2023-05-02T04:34:10.400Z,8.14
2023-05-02T04:36:20.680Z,8.19
2023-05-02T04:38:26.434Z,8.21
2023-05-02T04:40:32.394Z,8.27
2023-05-02T04:42:44.870Z,8.26
2023-05-02T04:44:55.813Z,8.36
2023-05-02T04:47:00.925Z,8.40
2023-05-02T04:49:06.559Z,8.41
2023-05-02T04:51:12.829Z,8.57
2023-05-02T04:53:20.920Z,8.70
2023-05-02T04:55:26.523Z,8.75
2023-05-02T04:57:31.674Z,8.76
2023-05-02T04:59:41.483Z,8.90
2023-05-02T05:01:47.851Z,8.98
2023-05-02T05:03:53.252Z,9.06
2023-05-02T05:05:58.760Z,9.12
2023-05-02T05:08:04.531Z,9.19
2023-05-02T05:10:14.119Z,9.31
2023-05-02T05:12:23.492Z,9.43
2023-05-02T05:14:29.378Z,9.40
2023-05-02T05:16:37.739Z,9.56
2023-05-02T05:18:43.198Z,9.78
2023-05-02T05:20:50.991Z,9.82
2023-05-02T05:22:56.168Z,9.85
2023-05-02T05:25:02.944Z,9.97
2023-05-02T05:27:10.276Z,10.05
2023-05-02T05:29:15.720Z,10.15
2023-05-02T05:31:23.293Z,10.22
2023-05-02T05:33:36.275Z,10.34
2023-05-02T05:35:42.472Z,10.37
2023-05-02T05:37:47.969Z,10.40
2023-05-02T05:39:55.489Z,10.48
2023-05-02T05:42:02.740Z,10.57
2023-05-02T05:44:08.580Z,10.64
2023-05-02T05:46:14.127Z,10.70
2023-05-02T05:48:19.240Z,10.74
2023-05-02T05:50:27.906Z,10.80
2023-05-02T05:52:32.940Z,10.87
2023-05-02T05:54:39.927Z,11.02
2023-05-02T05:56:45.017Z,11.08
2023-05-02T05:58:54.920Z,11.25
2023-05-02T06:01:00.422Z,11.41
2023-05-02T06:03:07.395Z,11.54
2023-05-02T06:05:14.551Z,11.64
2023-05-02T06:07:23.905Z,11.66
2023-05-02T06:09:29.236Z,11.65
2023-05-02T06:11:34.918Z,11.76
2023-05-02T06:13:39.987Z,11.86
2023-05-02T06:15:46.390Z,12.04
2023-05-02T06:17:53.282Z,12.17
2023-05-02T06:19:58.582Z,12.54
2023-05-02T06:22:04.307Z,12.47
2023-05-02T06:24:12.077Z,12.63
2023-05-02T06:26:17.534Z,12.69
2023-05-02T06:28:22.808Z,12.82
2023-05-02T06:30:28.103Z,12.97
2023-05-02T06:32:34.249Z,13.07
2023-05-02T06:34:39.358Z,13.35
2023-05-02T06:36:44.545Z,13.38
2023-05-02T06:38:50.401Z,13.19
2023-05-02T06:40:58.308Z,13.37
2023-05-02T06:43:03.603Z,13.32
2023-05-02T06:45:10.379Z,13.55
2023-05-02T06:47:15.913Z,13.51
2023-05-02T06:49:21.004Z,13.55
2023-05-02T06:51:26.425Z,13.56
2023-05-02T06:53:33.028Z,13.36
2023-05-02T06:55:38.351Z,13.22
2023-05-02T06:57:46.516Z,13.17
2023-05-02T06:59:51.523Z,13.18
2023-05-02T07:01:57.014Z,13.28
2023-05-02T07:04:04.060Z,13.37
2023-05-02T07:06:09.235Z,13.44
2023-05-02T07:08:14.357Z,13.63
2023-05-02T07:10:19.400Z,13.68
2023-05-02T07:12:24.872Z,13.93
2023-05-02T07:14:32.488Z,14.31
2023-05-02T07:16:37.630Z,14.40
2023-05-02T07:18:42.946Z,14.51
2023-05-02T07:20:48.634Z,14.89
2023-05-02T07:22:54.258Z,15.01
2023-05-02T07:25:04.457Z,15.25
2023-05-02T07:27:09.513Z,15.91
2023-05-02T07:29:14.522Z,16.14
2023-05-02T07:31:22.369Z,16.05
2023-05-02T07:33:27.989Z,16.01
2023-05-02T07:35:33.047Z,15.64
2023-05-02T07:37:38.824Z,15.32
2023-05-02T07:39:43.860Z,15.15
2023-05-02T07:41:48.911Z,14.84
2023-05-02T07:43:54.413Z,14.84
2023-05-02T07:45:59.481Z,14.81
2023-05-02T07:48:08.443Z,14.78
2023-05-02T07:50:14.461Z,14.83
2023-05-02T07:52:19.482Z,14.85
2023-05-02T07:54:26.385Z,14.77
2023-05-02T07:56:33.493Z,15.07
2023-05-02T07:58:39.078Z,15.06
2023-05-02T08:00:44.097Z,14.81
2023-05-02T08:02:49.148Z,14.83
2023-05-02T08:04:56.864Z,15.02
2023-05-02T08:07:01.913Z,14.73
2023-05-02T08:09:07.064Z,14.95
2023-05-02T08:11:12.156Z,14.80
2023-05-02T08:13:17.225Z,14.84
2023-05-02T08:15:22.235Z,15.11
2023-05-02T08:17:29.279Z,15.12
2023-05-02T08:19:34.414Z,15.03
2023-05-02T08:21:42.032Z,14.93
2023-05-02T08:23:47.051Z,14.84
2023-05-02T08:25:52.115Z,14.91
2023-05-02T08:27:57.142Z,14.74
2023-05-02T08:30:02.383Z,14.74
2023-05-02T08:32:08.408Z,14.60
2023-05-02T08:34:13.510Z,14.51
2023-05-02T08:36:20.444Z,14.57
2023-05-02T08:38:28.330Z,14.55
2023-05-02T08:40:42.372Z,14.72
2023-05-02T08:42:48.287Z,14.67
2023-05-02T08:44:54.233Z,14.75
2023-05-02T08:47:00.248Z,14.76
2023-05-02T08:49:06.386Z,15.08
2023-05-02T08:51:13.391Z,15.20
2023-05-02T08:53:20.825Z,15.15
2023-05-02T08:55:29.429Z,15.26
2023-05-02T08:57:34.949Z,15.31
2023-05-02T08:59:40.337Z,15.33
2023-05-02T09:01:49.006Z,15.34
2023-05-02T09:03:56.066Z,15.41
2023-05-02T09:06:10.325Z,15.51
2023-05-02T09:08:16.647Z,15.60
2023-05-02T09:10:22.359Z,15.73
2023-05-02T09:12:31.303Z,15.90
2023-05-02T09:14:36.667Z,16.13
2023-05-02T09:16:42.723Z,16.63
2023-05-02T09:18:50.264Z,16.92
2023-05-02T09:20:56.309Z,16.95
2023-05-02T09:23:01.340Z,17.36
2023-05-02T09:25:07.810Z,17.43
2023-05-02T09:27:13.406Z,17.77
2023-05-02T09:29:23.441Z,18.34
2023-05-02T09:31:53.992Z,18.69
2023-05-02T09:33:57.088Z,18.56
2023-05-02T09:36:02.119Z,18.84
2023-05-02T09:38:07.264Z,19.00
2023-05-02T09:40:14.354Z,18.43
2023-05-02T09:42:34.212Z,17.81
2023-05-02T09:44:43.321Z,17.19
2023-05-02T09:46:51.481Z,16.48
2023-05-02T09:48:58.441Z,16.35
2023-05-02T09:51:05.190Z,16.17
2023-05-02T09:53:12.317Z,16.46
2023-05-02T09:55:24.251Z,17.63
2023-05-02T09:57:43.556Z,17.83
2023-05-02T10:00:01.128Z,17.97
2023-05-02T10:02:09.829Z,17.78
2023-05-02T10:04:18.980Z,17.62
2023-05-02T10:06:24.801Z,17.33
2023-05-02T10:08:31.554Z,17.02
2023-05-02T10:10:39.385Z,16.59
2023-05-02T10:12:45.280Z,16.50
2023-05-02T10:14:59.464Z,16.93
2023-05-02T10:17:14.454Z,17.40
2023-05-02T10:19:26.926Z,18.00
2023-05-02T10:21:32.994Z,18.35
2023-05-02T10:23:38.882Z,18.96
2023-05-02T10:25:44.320Z,18.73
2023-05-02T10:27:50.631Z,18.32
2023-05-02T10:29:56.351Z,18.85
2023-05-02T10:32:03.994Z,19.51
2023-05-02T10:34:13.910Z,19.87
2023-05-02T10:36:22.984Z,20.23
2023-05-02T10:38:28.758Z,19.61
2023-05-02T10:40:34.327Z,19.18
2023-05-02T10:42:43.053Z,19.69
2023-05-02T10:44:49.105Z,20.27
2023-05-02T10:46:54.416Z,20.20
2023-05-02T10:49:11.977Z,19.63
2023-05-02T10:51:32.150Z,19.37
2023-05-02T10:53:39.771Z,18.72
2023-05-02T10:55:44.851Z,17.26
2023-05-02T10:58:24.285Z,16.28
2023-05-02T11:00:32.503Z,15.60
2023-05-02T11:02:53.393Z,15.12
2023-05-02T11:05:09.353Z,14.74
2023-05-02T11:07:22.430Z,14.75
2023-05-02T11:09:38.888Z,14.74
2023-05-02T11:11:45.417Z,14.91
2023-05-02T11:13:53.607Z,14.96
2023-05-02T11:16:02.185Z,15.40
2023-05-02T11:18:10.000Z,15.74
2023-05-02T11:20:35.265Z,16.25
2023-05-02T11:22:40.890Z,16.34
2023-05-02T11:24:47.950Z,16.71
2023-05-02T11:26:53.117Z,16.72
2023-05-02T11:28:58.197Z,17.13
2023-05-02T11:31:03.717Z,17.45
2023-05-02T11:33:20.666Z,17.96
2023-05-02T11:35:28.036Z,18.30
2023-05-02T11:37:36.593Z,18.97
2023-05-02T11:39:41.717Z,19.75
2023-05-02T11:41:48.436Z,19.84
2023-05-02T11:44:06.661Z,19.58
2023-05-02T11:46:12.753Z,19.61
2023-05-02T11:48:22.545Z,19.45
2023-05-02T11:50:30.447Z,18.92
2023-05-02T11:52:41.466Z,18.67
2023-05-02T11:54:47.508Z,18.01
2023-05-02T11:56:52.624Z,17.56
2023-05-02T11:59:02.018Z,17.35
2023-05-02T12:01:17.741Z,16.72
2023-05-02T12:03:29.861Z,16.80
2023-05-02T12:05:36.059Z,16.81
2023-05-02T12:07:45.975Z,16.65
2023-05-02T12:09:54.921Z,16.30
2023-05-02T12:12:02.103Z,16.05
2023-05-02T12:14:08.414Z,16.13
2023-05-02T12:16:13.624Z,16.27
2023-05-02T12:18:21.520Z,16.27
2023-05-02T12:20:28.335Z,16.43
2023-05-02T12:22:34.069Z,16.68
2023-05-02T12:24:43.683Z,16.65
2023-05-02T12:26:50.129Z,16.53
2023-05-02T12:28:58.386Z,16.60
2023-05-02T12:31:13.927Z,16.94
2023-05-02T12:33:19.580Z,17.20
2023-05-02T12:35:25.773Z,17.14
2023-05-02T12:37:31.908Z,17.46
2023-05-02T12:39:44.492Z,17.65
2023-05-02T12:41:49.593Z,17.72
2023-05-02T12:43:54.789Z,17.82
2023-05-02T12:46:13.657Z,18.07
2023-05-02T12:48:36.742Z,18.07
2023-05-02T12:50:42.730Z,18.47
2023-05-02T12:52:57.646Z,18.63
2023-05-02T12:55:24.615Z,19.10
2023-05-02T12:57:30.331Z,19.62
2023-05-02T12:59:36.156Z,19.77
2023-05-02T13:01:41.657Z,20.29
2023-05-02T13:03:48.438Z,20.47
2023-05-02T13:05:57.311Z,20.28
2023-05-02T13:08:03.133Z,20.50
2023-05-02T13:10:09.705Z,20.79
2023-05-02T13:12:18.433Z,21.44
2023-05-02T13:14:23.482Z,22.39
2023-05-02T13:16:30.507Z,22.27
2023-05-02T13:18:36.509Z,21.88
2023-05-02T13:20:41.619Z,20.42
2023-05-02T13:22:46.905Z,19.86
2023-05-02T13:24:51.943Z,19.73
2023-05-02T13:26:57.914Z,19.71
2023-05-02T13:29:06.200Z,19.47
2023-05-02T13:31:11.470Z,20.33
2023-05-02T13:33:17.386Z,20.84
2023-05-02T13:35:22.448Z,21.78
2023-05-02T13:37:28.268Z,21.81
2023-05-02T13:39:33.335Z,22.14
2023-05-02T13:41:38.723Z,21.78
2023-05-02T13:43:43.742Z,21.33
2023-05-02T13:45:52.561Z,21.51
2023-05-02T13:47:58.065Z,20.89
2023-05-02T13:50:03.715Z,19.95
2023-05-02T13:52:09.610Z,19.29
2023-05-02T13:54:15.420Z,19.00
2023-05-02T13:56:21.054Z,18.91
2023-05-02T13:58:26.273Z,18.74
2023-05-02T14:00:31.861Z,18.81
2023-05-02T14:02:40.261Z,19.34
2023-05-02T14:04:45.279Z,18.94
2023-05-02T14:06:50.635Z,18.68
2023-05-02T14:08:56.274Z,18.75
2023-05-02T14:11:01.333Z,18.48
2023-05-02T14:13:06.794Z,18.18
2023-05-02T14:15:13.245Z,17.98
2023-05-02T14:17:18.247Z,17.99
2023-05-02T14:19:26.348Z,17.65
2023-05-02T14:21:31.920Z,17.19
2023-05-02T14:23:37.390Z,17.11
2023-05-02T14:25:42.592Z,16.78
2023-05-02T14:27:47.639Z,16.44
2023-05-02T14:29:52.908Z,16.20
2023-05-02T14:31:57.981Z,16.16
2023-05-02T14:34:03.511Z,15.77
2023-05-02T14:36:12.669Z,15.84
2023-05-02T14:38:17.988Z,15.82
2023-05-02T14:40:23.019Z,15.85
2023-05-02T14:42:28.609Z,16.03
2023-05-02T14:44:33.942Z,16.23
2023-05-02T14:46:39.259Z,16.43
2023-05-02T14:48:44.810Z,16.46
2023-05-02T14:50:49.812Z,16.43
2023-05-02T14:52:57.669Z,16.08
2023-05-02T14:55:03.631Z,16.02
2023-05-02T14:57:09.259Z,15.74
2023-05-02T14:59:14.574Z,15.64
2023-05-02T15:01:20.859Z,15.44
2023-05-02T15:03:26.389Z,15.38
2023-05-02T15:05:31.772Z,15.35
2023-05-02T15:07:36.799Z,15.21
2023-05-02T15:09:44.819Z,14.94
2023-05-02T15:11:49.846Z,14.70
2023-05-02T15:13:56.593Z,14.44
2023-05-02T15:16:03.927Z,14.39
2023-05-02T15:18:09.228Z,14.06
2023-05-02T15:20:16.136Z,13.85
2023-05-02T15:22:22.444Z,13.88
2023-05-02T15:24:27.897Z,13.89
2023-05-02T15:26:36.357Z,13.82
2023-05-02T15:28:41.590Z,13.87
2023-05-02T15:30:46.933Z,13.88
2023-05-02T15:32:52.081Z,13.94
2023-05-02T15:34:57.670Z,14.28
2023-05-02T15:37:03.884Z,14.51
2023-05-02T15:39:09.919Z,15.17
2023-05-02T15:41:14.971Z,17.16
2023-05-02T15:43:23.031Z,18.78
2023-05-02T15:45:28.689Z,20.17
2023-05-02T15:47:33.895Z,20.21
2023-05-02T15:49:39.189Z,19.03
2023-05-02T15:51:44.237Z,18.65
2023-05-02T15:53:52.501Z,18.62
2023-05-02T15:55:58.073Z,17.98
2023-05-02T15:58:03.107Z,17.49
2023-05-02T16:00:17.013Z,16.78
2023-05-02T16:02:22.176Z,16.22
2023-05-02T16:04:28.770Z,15.72
2023-05-02T16:06:34.720Z,15.72
2023-05-02T16:08:39.768Z,15.32
2023-05-02T16:10:45.036Z,14.97
2023-05-02T16:12:50.134Z,14.58
2023-05-02T16:14:55.442Z,14.46
2023-05-02T16:17:04.129Z,14.47
2023-05-02T16:19:13.577Z,14.40
2023-05-02T16:21:19.078Z,14.39
2023-05-02T16:23:24.426Z,14.16
2023-05-02T16:25:30.114Z,14.19
2023-05-02T16:27:36.514Z,14.26
2023-05-02T16:29:42.067Z,14.30
2023-05-02T16:31:47.372Z,14.16
2023-05-02T16:33:55.240Z,14.68
2023-05-02T16:36:04.645Z,16.04
2023-05-02T16:38:09.773Z,17.65
2023-05-02T16:40:16.413Z,18.72
2023-05-02T16:42:21.463Z,19.61
2023-05-02T16:44:26.561Z,20.24
2023-05-02T16:46:32.119Z,20.83
2023-05-02T16:48:37.857Z,20.73
2023-05-02T16:50:45.449Z,21.43
2023-05-02T16:52:50.823Z,22.03
2023-05-02T16:54:56.135Z,22.35
2023-05-02T16:57:02.800Z,22.76
2023-05-02T16:59:07.809Z,21.98
2023-05-02T17:01:13.029Z,22.43
2023-05-02T17:03:18.115Z,21.45
2023-05-02T17:05:23.617Z,20.45
2023-05-02T17:07:31.518Z,20.48
2023-05-02T17:09:37.180Z,20.80
2023-05-02T17:11:42.284Z,21.72
2023-05-02T17:13:47.419Z,21.72
2023-05-02T17:15:53.018Z,21.17
2023-05-02T17:17:58.081Z,20.68
2023-05-02T17:20:03.725Z,20.85
2023-05-02T17:22:10.241Z,19.14
2023-05-02T17:24:18.002Z,18.44
2023-05-02T17:26:23.044Z,18.83
2023-05-02T17:28:28.660Z,18.04
2023-05-02T17:30:34.483Z,16.90
2023-05-02T17:32:40.366Z,16.45
2023-05-02T17:34:45.780Z,15.26
2023-05-02T17:36:50.823Z,14.64
2023-05-02T17:38:56.664Z,14.31
2023-05-02T17:41:04.316Z,14.16
2023-05-02T17:43:09.648Z,13.96
2023-05-02T17:45:15.171Z,13.62
2023-05-02T17:47:20.328Z,13.28
2023-05-02T17:49:26.639Z,13.03
2023-05-02T17:51:32.202Z,13.03
2023-05-02T17:53:37.825Z,12.81
2023-05-02T17:55:42.846Z,12.78
2023-05-02T17:57:50.454Z,12.43
2023-05-02T17:59:58.527Z,12.37
2023-05-02T18:02:04.064Z,12.39
2023-05-02T18:04:13.062Z,12.21
2023-05-02T18:06:19.439Z,12.07
2023-05-02T18:08:24.496Z,12.08
2023-05-02T18:10:30.258Z,12.02
2023-05-02T18:12:35.939Z,11.84
2023-05-02T18:14:43.835Z,11.81
2023-05-02T18:16:49.217Z,11.71
2023-05-02T18:18:54.481Z,11.65
2023-05-02T18:20:59.675Z,11.67
2023-05-02T18:23:06.174Z,11.62
2023-05-02T18:25:11.860Z,11.57
2023-05-02T18:27:16.908Z,11.45
2023-05-02T18:29:21.996Z,11.43
2023-05-02T18:31:29.657Z,11.51
2023-05-02T18:33:35.010Z,11.40
2023-05-02T18:35:40.048Z,11.33
2023-05-02T18:37:45.049Z,11.25
2023-05-02T18:39:50.061Z,11.25
2023-05-02T18:41:55.075Z,11.20
2023-05-02T18:44:00.933Z,11.14
2023-05-02T18:46:06.041Z,11.14
2023-05-02T18:48:13.643Z,11.08
2023-05-02T18:50:18.710Z,11.07
2023-05-02T18:52:24.811Z,11.09
2023-05-02T18:54:29.832Z,11.03
2023-05-02T18:56:35.400Z,10.97
2023-05-02T18:58:40.416Z,10.92
2023-05-02T19:00:45.958Z,10.89
2023-05-02T19:02:54.417Z,10.87
2023-05-02T19:05:02.879Z,10.82
2023-05-02T19:07:09.339Z,10.78
2023-05-02T19:09:15.882Z,10.73
2023-05-02T19:11:23.065Z,10.71
2023-05-02T19:13:28.494Z,10.62
2023-05-02T19:15:33.500Z,10.53
2023-05-02T19:17:39.416Z,10.47
2023-05-02T19:19:46.831Z,10.41
2023-05-02T19:21:55.266Z,10.32
2023-05-02T19:24:00.384Z,10.26
2023-05-02T19:26:06.048Z,10.24
2023-05-02T19:28:13.122Z,10.13
2023-05-02T19:30:18.668Z,10.07
2023-05-02T19:32:25.524Z,10.08
2023-05-02T19:34:31.970Z,9.96
2023-05-02T19:36:37.010Z,9.87
2023-05-02T19:38:45.402Z,9.80
2023-05-02T19:40:50.547Z,9.59
2023-05-02T19:42:57.242Z,9.43
2023-05-02T19:45:02.644Z,9.32
2023-05-02T19:47:08.048Z,9.28
2023-05-02T19:49:13.826Z,9.24
2023-05-02T19:51:25.337Z,9.20
2023-05-02T19:53:31.608Z,9.06
2023-05-02T19:55:39.251Z,8.91
2023-05-02T19:57:45.161Z,8.93
2023-05-02T19:59:50.169Z,8.78
2023-05-02T20:01:55.959Z,8.75
2023-05-02T20:04:01.532Z,8.60
2023-05-02T20:06:07.025Z,8.52
2023-05-02T20:08:12.558Z,8.43
2023-05-02T20:10:18.461Z,8.28
2023-05-02T20:12:26.172Z,8.16
2023-05-02T20:14:31.945Z,8.08
2023-05-02T20:16:37.073Z,7.98
2023-05-02T20:18:42.380Z,7.99
2023-05-02T20:20:47.480Z,7.88
2023-05-02T20:22:54.575Z,7.74
2023-05-02T20:24:59.939Z,7.68
2023-05-02T20:27:05.876Z,7.65
2023-05-02T20:29:13.742Z,7.50
2023-05-02T20:31:18.766Z,7.51
2023-05-02T20:33:27.485Z,7.38
2023-05-02T20:35:35.672Z,7.22
2023-05-02T20:37:40.888Z,7.08
2023-05-02T20:39:46.195Z,7.10
2023-05-02T20:41:51.718Z,7.02
2023-05-02T20:43:57.336Z,6.92
2023-05-02T20:46:12.980Z,6.75
2023-05-02T20:48:20.000Z,6.63
2023-05-02T20:50:25.714Z,6.45
2023-05-02T20:52:30.883Z,6.33
2023-05-02T20:54:36.550Z,6.22
2023-05-02T20:56:41.955Z,6.24
2023-05-02T20:58:46.981Z,6.14
2023-05-02T21:00:52.822Z,6.07
2023-05-02T21:03:00.527Z,6.11
2023-05-02T21:05:06.627Z,5.94
2023-05-02T21:07:11.746Z,5.90
2023-05-02T21:09:18.791Z,5.88
2023-05-02T21:11:23.876Z,5.87
2023-05-02T21:13:28.968Z,5.79
2023-05-02T21:15:38.642Z,5.70
2023-05-02T21:17:43.737Z,5.58
2023-05-02T21:19:51.320Z,5.55
2023-05-02T21:21:56.322Z,5.57
2023-05-02T21:24:01.386Z,5.53
2023-05-02T21:26:07.221Z,5.43
2023-05-02T21:28:12.221Z,5.33
2023-05-02T21:30:18.075Z,5.28
2023-05-02T21:32:24.019Z,5.23
2023-05-02T21:34:29.350Z,5.32
2023-05-02T21:36:37.542Z,5.27
2023-05-02T21:38:42.647Z,5.16
2023-05-02T21:40:47.654Z,5.07
2023-05-02T21:42:52.644Z,5.10
2023-05-02T21:44:58.472Z,5.10
2023-05-02T21:47:03.845Z,5.10
2023-05-02T21:49:08.985Z,4.94
2023-05-02T21:51:15.183Z,4.88
2023-05-02T21:53:22.816Z,4.80
2023-05-02T21:55:28.754Z,4.75
2023-05-02T21:57:33.803Z,4.79
2023-05-02T21:59:38.807Z,4.63
2023-05-02T22:01:44.093Z,4.40
2023-05-02T22:03:49.132Z,4.31
2023-05-02T22:05:54.688Z,4.26
2023-05-02T22:08:00.878Z,4.23
2023-05-02T22:10:10.265Z,4.14
2023-05-02T22:12:15.537Z,4.15
2023-05-02T22:14:22.086Z,4.02
2023-05-02T22:16:29.380Z,4.00
2023-05-02T22:18:34.515Z,4.10
2023-05-02T22:20:39.526Z,4.07
2023-05-02T22:22:44.809Z,3.94
2023-05-02T22:24:50.087Z,3.75
2023-05-02T22:26:58.597Z,3.75
2023-05-02T22:29:03.620Z,3.62
2023-05-02T22:31:08.984Z,3.48
2023-05-02T22:33:14.852Z,3.33
2023-05-02T22:35:20.138Z,3.27
2023-05-02T22:37:25.189Z,3.21
2023-05-02T22:39:30.759Z,3.22
2023-05-02T22:41:35.863Z,3.28
2023-05-02T22:43:43.480Z,3.18
2023-05-02T22:45:51.347Z,3.30
2023-05-02T22:47:56.636Z,3.22
2023-05-02T22:50:05.498Z,3.29
2023-05-02T22:52:10.861Z,3.18
2023-05-02T22:54:16.995Z,3.06
2023-05-02T22:56:22.057Z,3.05
2023-05-02T22:58:27.227Z,3.07
2023-05-02T23:00:34.955Z,3.04
2023-05-02T23:02:40.341Z,3.09
2023-05-02T23:04:45.961Z,3.14
2023-05-02T23:06:51.076Z,3.09
2023-05-02T23:08:56.112Z,2.99
2023-05-02T23:11:01.114Z,2.90
2023-05-02T23:13:06.733Z,2.62
2023-05-02T23:15:13.332Z,2.56
2023-05-02T23:17:20.960Z,2.56
2023-05-02T23:19:26.100Z,2.49
2023-05-02T23:21:31.148Z,2.56
2023-05-02T23:23:36.167Z,2.41
2023-05-02T23:25:42.749Z,2.46
2023-05-02T23:27:47.808Z,2.54
2023-05-02T23:29:52.951Z,2.51
2023-05-02T23:31:58.188Z,2.55
2023-05-02T23:34:05.924Z,2.58
2023-05-02T23:36:12.458Z,2.61
2023-05-02T23:38:17.612Z,2.60
2023-05-02T23:40:22.714Z,2.49
2023-05-02T23:42:27.781Z,2.51
2023-05-02T23:44:33.245Z,2.54
2023-05-02T23:46:38.371Z,2.25
2023-05-02T23:48:43.555Z,2.11
2023-05-02T23:50:51.356Z,2.36
2023-05-02T23:52:56.386Z,2.34
2023-05-02T23:55:01.437Z,2.35
2023-05-02T23:57:06.521Z,2.22
2023-05-02T23:59:11.577Z,2.01
